Startpagina
METAR-TAF:

METAR-TAF

Vliegvelden :

Bagdad, Irak

Internationale Luchthaven Baghdad

breedte: 33-15-45N, lengte: 44-14-04E, hoogte: 35 m

Actueel weer

Dit bericht is 36 minuten geleden gemaakt, om 09:30 UTC
Wind 6 kt uit het zuidwesten, variërend tussen het zuidzuidwesten en het westen
Temperatuur 14°C
Vochtigheid 72%
Druk 1014 hPa
Zicht 10 km of meer
Geheel bewolkt op 3000 ft

METAR: ORBI 190930Z 23006KT 200V260 9999 OVC030 14/09 Q1014

Tijdstip: 13:06 (10:06 UTC)

Verwachting

Dit bericht is 6 uur en het 6 minuten geleden gemaakt, om 04:00 UTC
Verwachting geldig van 19 om 06 UTC tot 20 om 06 UTC
Wind 5 kt uit het zuidwesten
Zicht: 8000 m
Weinig wolken op 3000 ft
Verspreide wolken op 6000 ft
Wijzigt naar
van 19 om 15 UTC tot 19 om 17 UTC
Wind 8 kt uit het westnoordwesten
Zicht 10 km of meer
geen wolken onder 1500 m en geen cumulonimbus

TAF: ORBI 190400Z 1906/2006 23005KT 8000 FEW030 SCT060 BECMG 1915/1917 30008KT CAVOK

Waarnemingen en weersverwachtingen van meer dan 4000 vliegvelden (METAR en TAF).

De beschikbare stations zijn de gele en rode punten op de kaart.

Ga met uw muis naar het station om de naam te zien.

Klik dan om waarnemingen en weersverwachtingen te zien.

kaart wijzigen: klik op de groene knoppen met een zwart kruis om in te zoomen, op de groene knop met een streepje om uit te zoomen of op de groene pijlen voor aangrenzende kaarten.


METAR-TAF: